createdAt,value
2022-12-24T00:02:10.796Z,0.06
2022-12-24T00:04:41.266Z,0.06
2022-12-24T00:07:11.901Z,0.07
2022-12-24T00:09:41.982Z,0.08
2022-12-24T00:12:12.605Z,0.1
2022-12-24T00:14:43.244Z,0.12
2022-12-24T00:17:13.940Z,0.16
2022-12-24T00:19:44.488Z,0.18
2022-12-24T00:22:15.322Z,0.2
2022-12-24T00:24:45.943Z,0.21
2022-12-24T00:27:16.656Z,0.22
2022-12-24T00:29:46.891Z,0.24
2022-12-24T00:32:17.527Z,0.23
2022-12-24T00:34:48.104Z,0.24
2022-12-24T00:37:18.707Z,0.24
2022-12-24T00:39:49.311Z,0.23
2022-12-24T00:42:19.938Z,0.24
2022-12-24T00:44:50.506Z,0.24
2022-12-24T00:47:21.228Z,0.24
2022-12-24T00:49:51.703Z,0.24
2022-12-24T00:52:22.295Z,0.24
2022-12-24T00:54:52.886Z,0.25
2022-12-24T00:57:23.463Z,0.24
2022-12-24T00:59:54.078Z,0.24
2022-12-24T01:02:24.854Z,0.24
2022-12-24T01:04:55.259Z,0.24
2022-12-24T01:07:25.848Z,0.25
2022-12-24T01:09:56.440Z,0.25
2022-12-24T01:12:27.008Z,0.26
2022-12-24T01:14:57.580Z,0.27
2022-12-24T01:17:28.179Z,0.28
2022-12-24T01:19:58.732Z,0.28
2022-12-24T01:22:29.316Z,0.29
2022-12-24T01:24:59.896Z,0.27
2022-12-24T01:27:30.450Z,0.27
2022-12-24T01:30:01.035Z,0.28
2022-12-24T01:32:31.668Z,0.26
2022-12-24T01:35:02.234Z,0.28
2022-12-24T01:37:32.760Z,0.28
2022-12-24T01:40:03.337Z,0.29
2022-12-24T01:42:33.911Z,0.28
2022-12-24T01:45:04.480Z,0.29
2022-12-24T01:47:35.065Z,0.29
2022-12-24T01:50:05.638Z,0.29
2022-12-24T01:52:36.242Z,0.3
2022-12-24T01:55:06.790Z,0.3
2022-12-24T01:57:37.354Z,0.3
2022-12-24T02:00:07.927Z,0.24
2022-12-24T02:02:38.693Z,0.24
2022-12-24T02:05:09.106Z,0.23
2022-12-24T02:07:39.683Z,0.24
2022-12-24T02:10:10.273Z,0.24
2022-12-24T02:12:40.971Z,0.23
2022-12-24T02:15:11.454Z,0.21
2022-12-24T02:17:42.016Z,0.24
2022-12-24T02:20:12.335Z,0.25
2022-12-24T02:22:42.902Z,0.25
2022-12-24T02:25:13.507Z,0.24
2022-12-24T02:27:43.841Z,0.26
2022-12-24T02:30:14.313Z,0.26
2022-12-24T02:32:44.990Z,0.25
2022-12-24T02:35:15.532Z,0.25
2022-12-24T02:37:46.071Z,0.25
2022-12-24T02:40:17.092Z,0.26
2022-12-24T02:42:47.319Z,0.26
2022-12-24T02:45:17.570Z,0.26
2022-12-24T02:47:48.224Z,0.25
2022-12-24T02:50:18.787Z,0.25
2022-12-24T02:52:49.298Z,0.27
2022-12-24T02:55:20.183Z,0.26
2022-12-24T02:57:50.447Z,0.21
2022-12-24T03:00:20.998Z,0.22
2022-12-24T03:02:51.393Z,0.23
2022-12-24T03:05:21.613Z,0.23
2022-12-24T03:07:52.165Z,0.24
2022-12-24T03:10:22.757Z,0.25
2022-12-24T03:12:53.319Z,0.25
2022-12-24T03:15:23.907Z,0.25
2022-12-24T03:17:54.495Z,0.25
2022-12-24T03:20:25.353Z,0.25
2022-12-24T03:22:55.666Z,0.24
2022-12-24T03:25:25.990Z,0.23
2022-12-24T03:27:56.481Z,0.24
2022-12-24T03:30:27.076Z,0.25
2022-12-24T03:32:57.664Z,0.24
2022-12-24T03:35:28.254Z,0.26
2022-12-24T03:37:58.943Z,0.26
2022-12-24T03:40:29.408Z,0.27
2022-12-24T03:43:00.109Z,0.26
2022-12-24T03:45:30.675Z,0.27
2022-12-24T03:48:01.291Z,0.24
2022-12-24T03:50:31.816Z,0.23
2022-12-24T03:53:02.407Z,0.24
2022-12-24T03:55:32.987Z,0.26
2022-12-24T03:58:03.558Z,0.26
2022-12-24T04:00:33.616Z,0.23
2022-12-24T04:03:04.257Z,0.23
2022-12-24T04:05:34.446Z,0.24
2022-12-24T04:08:04.523Z,0.23
2022-12-24T04:10:34.559Z,0.23
2022-12-24T04:13:05.126Z,0.22
2022-12-24T04:15:35.725Z,0.23
2022-12-24T04:18:06.024Z,0.23
2022-12-24T04:20:36.627Z,0.23
2022-12-24T04:23:06.906Z,0.22
2022-12-24T04:25:37.427Z,0.23
2022-12-24T04:28:07.758Z,0.23
2022-12-24T04:30:38.330Z,0.23
2022-12-24T04:33:08.924Z,0.23
2022-12-24T04:35:39.239Z,0.23
2022-12-24T04:38:09.888Z,0.23
2022-12-24T04:40:40.400Z,0.23
2022-12-24T04:43:10.737Z,0.24
2022-12-24T04:45:40.990Z,0.24
2022-12-24T04:48:11.576Z,0.23
2022-12-24T04:50:41.878Z,0.24
2022-12-24T04:53:12.134Z,0.24
2022-12-24T04:55:42.721Z,0.23
2022-12-24T04:58:13.102Z,0.24
2022-12-24T05:00:43.327Z,0.24
2022-12-24T05:03:14.025Z,0.23
2022-12-24T05:05:44.165Z,0.24
2022-12-24T05:08:14.472Z,0.24
2022-12-24T05:10:45.051Z,0.24
2022-12-24T05:13:15.645Z,0.23
2022-12-24T05:15:46.217Z,0.2
2022-12-24T05:18:16.810Z,0.21
2022-12-24T05:20:47.390Z,0.21
2022-12-24T05:23:18.080Z,0.22
2022-12-24T05:25:48.560Z,0.22
2022-12-24T05:28:19.439Z,0.2
2022-12-24T05:30:50.062Z,0.19
2022-12-24T05:33:20.610Z,0.22
2022-12-24T05:35:51.177Z,0.2
2022-12-24T05:38:21.873Z,0.2
2022-12-24T05:40:52.327Z,0.21
2022-12-24T05:43:23.073Z,0.21
2022-12-24T05:45:53.602Z,0.23
2022-12-24T05:48:23.784Z,0.23
2022-12-24T05:50:54.041Z,0.2
2022-12-24T05:53:24.434Z,0.22
2022-12-24T05:55:54.675Z,0.23
2022-12-24T05:58:25.182Z,0.23
2022-12-24T06:00:55.764Z,0.21
2022-12-24T06:03:26.350Z,0.21
2022-12-24T06:05:56.652Z,0.21
2022-12-24T06:08:27.250Z,0.2
2022-12-24T06:10:57.840Z,0.21
2022-12-24T06:13:28.482Z,0.22
2022-12-24T06:15:59.186Z,0.2
2022-12-24T06:18:29.312Z,0.22
2022-12-24T06:20:59.971Z,0.24
2022-12-24T06:23:30.170Z,0.2
2022-12-24T06:26:00.747Z,0.21
2022-12-24T06:28:31.345Z,0.23
2022-12-24T06:31:03.227Z,0.21
2022-12-24T06:33:32.275Z,0.21
2022-12-24T06:36:02.835Z,0.17
2022-12-24T06:38:33.427Z,0.19
2022-12-24T06:41:04.020Z,0.2
2022-12-24T06:43:34.630Z,0.22
2022-12-24T06:46:05.251Z,0.2
2022-12-24T06:48:35.822Z,0.22
2022-12-24T06:51:06.424Z,0.22
2022-12-24T06:53:37.009Z,0.23
2022-12-24T06:56:07.608Z,0.22
2022-12-24T06:58:37.921Z,0.23
2022-12-24T07:01:08.548Z,0.19
2022-12-24T07:03:39.141Z,0.21
2022-12-24T07:06:09.702Z,0.2
2022-12-24T07:08:39.951Z,0.22
2022-12-24T07:11:10.000Z,0.21
2022-12-24T07:13:40.594Z,0.23
2022-12-24T07:16:11.580Z,0.22
2022-12-24T07:18:41.996Z,0.21
2022-12-24T07:21:12.611Z,0.2
2022-12-24T07:23:43.184Z,0.18
2022-12-24T07:26:13.809Z,0.18
2022-12-24T07:28:44.128Z,0.22
2022-12-24T07:31:14.632Z,0.21
2022-12-24T07:33:45.176Z,0.21
2022-12-24T07:36:15.772Z,0.22
2022-12-24T07:38:46.503Z,0.21
2022-12-24T07:41:16.965Z,0.22
2022-12-24T07:43:47.242Z,0.2
2022-12-24T07:46:17.901Z,0.21
2022-12-24T07:48:48.247Z,0.21
2022-12-24T07:51:19.010Z,0.21
2022-12-24T07:53:49.666Z,0.21
2022-12-24T07:56:19.940Z,0.22
2022-12-24T07:58:50.515Z,0.21
2022-12-24T08:01:21.447Z,0.21
2022-12-24T08:03:52.137Z,0.2
2022-12-24T08:06:22.279Z,0.19
2022-12-24T08:08:53.150Z,0.17
2022-12-24T08:11:23.455Z,0.18
2022-12-24T08:13:54.004Z,0.18
2022-12-24T08:16:24.728Z,0.19
2022-12-24T08:18:55.187Z,0.18
2022-12-24T08:21:25.508Z,0.18
2022-12-24T08:23:56.085Z,0.14
2022-12-24T08:26:26.474Z,0.17
2022-12-24T08:28:56.689Z,0.19
2022-12-24T08:31:27.079Z,0.17
2022-12-24T08:33:57.527Z,0.16
2022-12-24T08:36:28.127Z,0.16
2022-12-24T08:38:58.704Z,0.13
2022-12-24T08:41:29.400Z,0.12
2022-12-24T08:43:59.890Z,0.17
2022-12-24T08:46:30.339Z,0.17
2022-12-24T08:49:00.706Z,0.17
2022-12-24T08:51:30.849Z,0.15
2022-12-24T08:54:01.322Z,0.18
2022-12-24T08:56:31.717Z,0.19
2022-12-24T08:59:01.892Z,0.19
2022-12-24T09:01:32.560Z,0.19
2022-12-24T09:04:03.015Z,0.18
2022-12-24T09:06:33.359Z,0.17
2022-12-24T09:09:03.561Z,0.19
2022-12-24T09:11:34.165Z,0.2
2022-12-24T09:14:04.726Z,0.2
2022-12-24T09:16:34.853Z,0.21
2022-12-24T09:19:05.350Z,0.22
2022-12-24T09:21:36.055Z,0.21
2022-12-24T09:24:06.523Z,0.21
2022-12-24T09:26:36.776Z,0.22
2022-12-24T09:29:07.330Z,0.21
2022-12-24T09:31:37.731Z,0.21
2022-12-24T09:34:07.937Z,0.21
2022-12-24T09:36:38.534Z,0.19
2022-12-24T09:39:09.376Z,0.19
2022-12-24T09:41:40.266Z,0.2
2022-12-24T09:44:10.826Z,0.2
2022-12-24T09:46:41.612Z,0.18
2022-12-24T09:49:12.175Z,0.21
2022-12-24T09:51:42.464Z,0.2
2022-12-24T09:54:13.120Z,0.2
2022-12-24T09:56:43.342Z,0.21
2022-12-24T09:59:13.893Z,0.19
2022-12-24T10:01:44.721Z,0.2
2022-12-24T10:04:15.089Z,0.2
2022-12-24T10:06:45.623Z,0.2
2022-12-24T10:09:16.172Z,0.2
2022-12-24T10:11:46.831Z,0.2
2022-12-24T10:14:17.309Z,0.21
2022-12-24T10:16:47.905Z,0.2
2022-12-24T10:19:18.447Z,0.19
2022-12-24T10:21:49.058Z,0.18
2022-12-24T10:24:19.222Z,0.21
2022-12-24T10:26:49.597Z,0.21
2022-12-24T10:29:20.082Z,0.2
2022-12-24T10:31:50.644Z,0.22
2022-12-24T10:34:20.934Z,0.21
2022-12-24T10:36:51.431Z,0.22
2022-12-24T10:39:21.971Z,0.22
2022-12-24T10:41:52.481Z,0.22
2022-12-24T10:44:22.746Z,0.21
2022-12-24T10:46:53.306Z,0.22
2022-12-24T10:49:23.575Z,0.18
2022-12-24T10:51:54.190Z,0.21
2022-12-24T10:54:27.244Z,0.21
2022-12-24T10:56:55.195Z,0.22
2022-12-24T10:59:26.016Z,0.22
2022-12-24T11:01:56.656Z,0.24
2022-12-24T11:04:27.358Z,0.21
2022-12-24T11:06:57.933Z,0.21
2022-12-24T11:09:28.476Z,0.21
2022-12-24T11:12:03.727Z,0.22
2022-12-24T11:14:29.342Z,0.22
2022-12-24T11:16:59.822Z,0.18
2022-12-24T11:19:30.373Z,0.2
2022-12-24T11:22:01.196Z,0.19
2022-12-24T11:24:31.567Z,0.19
2022-12-24T11:27:02.236Z,0.21
2022-12-24T11:29:32.699Z,0.18
2022-12-24T11:32:03.171Z,0.21
2022-12-24T11:34:33.911Z,0.21
2022-12-24T11:37:06.913Z,0.21
2022-12-24T11:39:35.056Z,0.2
2022-12-24T11:42:05.285Z,0.2
2022-12-24T11:44:35.897Z,0.21
2022-12-24T11:47:06.183Z,0.21
2022-12-24T11:49:36.733Z,0.21
2022-12-24T11:52:07.388Z,0.21
2022-12-24T11:54:37.810Z,0.2
2022-12-24T11:57:08.397Z,0.21
2022-12-24T11:59:38.624Z,0.22
2022-12-24T12:02:09.469Z,0.21
2022-12-24T12:04:39.810Z,0.2
2022-12-24T12:07:14.770Z,0.21
2022-12-24T12:09:40.846Z,0.22
2022-12-24T12:12:11.143Z,0.22
2022-12-24T12:14:41.686Z,0.22
2022-12-24T12:17:11.889Z,0.21
2022-12-24T12:19:42.175Z,0.21
2022-12-24T12:22:12.432Z,0.22
2022-12-24T12:24:42.643Z,0.21
2022-12-24T12:27:12.922Z,0.24
2022-12-24T12:29:43.493Z,0.23
2022-12-24T12:32:13.831Z,0.23
2022-12-24T12:34:44.460Z,0.23
2022-12-24T12:37:15.335Z,0.22
2022-12-24T12:39:45.706Z,0.23
2022-12-24T12:42:15.898Z,0.22
2022-12-24T12:44:46.271Z,0.21
2022-12-24T12:47:16.990Z,0.24
2022-12-24T12:49:47.533Z,0.23
2022-12-24T12:52:17.725Z,0.24
2022-12-24T12:54:48.286Z,0.24
2022-12-24T12:57:18.913Z,0.25
2022-12-24T12:59:49.380Z,0.23
2022-12-24T13:02:20.054Z,0.23
2022-12-24T13:04:50.476Z,0.23
2022-12-24T13:07:21.035Z,0.26
2022-12-24T13:09:51.298Z,0.27
2022-12-24T13:12:21.879Z,0.26
2022-12-24T13:14:52.415Z,0.27
2022-12-24T13:17:22.974Z,0.26
2022-12-24T13:19:53.519Z,0.25
2022-12-24T13:22:24.103Z,0.26
2022-12-24T13:24:54.349Z,0.26
2022-12-24T13:27:24.686Z,0.26
2022-12-24T13:29:55.283Z,0.27
2022-12-24T13:32:25.653Z,0.25
2022-12-24T13:34:56.194Z,0.26
2022-12-24T13:37:26.847Z,0.24
2022-12-24T13:39:57.315Z,0.28
2022-12-24T13:42:27.896Z,0.26
2022-12-24T13:44:58.154Z,0.26
2022-12-24T13:47:32.629Z,0.26
2022-12-24T13:49:59.306Z,0.24
2022-12-24T13:52:29.825Z,0.24
2022-12-24T13:55:00.365Z,0.24
2022-12-24T13:57:31.069Z,0.26
2022-12-24T14:00:01.140Z,0.25
2022-12-24T14:02:31.894Z,0.24
2022-12-24T14:05:01.967Z,0.26
2022-12-24T14:07:32.521Z,0.25
2022-12-24T14:10:03.094Z,0.25
2022-12-24T14:12:33.656Z,0.26
2022-12-24T14:15:03.908Z,0.26
2022-12-24T14:17:34.478Z,0.25
2022-12-24T14:20:04.677Z,0.26
2022-12-24T14:22:35.251Z,0.27
2022-12-24T14:25:05.515Z,0.27
2022-12-24T14:27:36.100Z,0.25
2022-12-24T14:30:06.800Z,0.26
2022-12-24T14:32:36.984Z,0.26
2022-12-24T14:35:07.500Z,0.26
2022-12-24T14:37:38.062Z,0.25
2022-12-24T14:40:08.625Z,0.26
2022-12-24T14:42:38.908Z,0.26
2022-12-24T14:45:09.422Z,0.24
2022-12-24T14:47:39.987Z,0.25
2022-12-24T14:50:10.046Z,0.26
2022-12-24T14:55:10.488Z,0.24
2022-12-24T14:57:41.358Z,0.25
2022-12-24T15:00:11.906Z,0.24
2022-12-24T15:02:42.740Z,0.25
2022-12-24T15:05:13.035Z,0.25
2022-12-24T15:07:47.271Z,0.27
2022-12-24T15:10:13.334Z,0.26
2022-12-24T15:12:43.570Z,0.27
2022-12-24T15:15:14.126Z,0.29
2022-12-24T15:17:44.727Z,0.3
2022-12-24T15:20:15.279Z,0.28
2022-12-24T15:22:45.867Z,0.3
2022-12-24T15:25:16.430Z,0.29
2022-12-24T15:27:47.018Z,0.29
2022-12-24T15:30:17.609Z,0.29
2022-12-24T15:32:48.166Z,0.28
2022-12-24T15:35:21.925Z,0.29
2022-12-24T15:37:49.074Z,0.27
2022-12-24T15:40:19.368Z,0.26
2022-12-24T15:42:49.987Z,0.26
2022-12-24T15:45:27.195Z,0.28
2022-12-24T15:47:51.184Z,0.29
2022-12-24T15:50:21.542Z,0.26
2022-12-24T15:53:20.854Z,0.27
2022-12-24T15:55:22.605Z,0.27
2022-12-24T15:57:53.163Z,0.22
2022-12-24T16:00:23.777Z,0.25
2022-12-24T16:02:54.424Z,0.24
2022-12-24T16:05:24.877Z,0.19
2022-12-24T16:07:55.452Z,0.22
2022-12-24T16:10:26.037Z,0.17
2022-12-24T16:12:56.594Z,0.23
2022-12-24T16:15:27.344Z,0.27
2022-12-24T16:17:57.443Z,0.27
2022-12-24T16:20:28.199Z,0.23
2022-12-24T16:22:58.633Z,0.21
2022-12-24T16:25:29.049Z,0.19
2022-12-24T16:28:00.886Z,0.18
2022-12-24T16:30:30.173Z,0.19
2022-12-24T16:33:00.636Z,0.18
2022-12-24T16:35:31.275Z,0.18
2022-12-24T16:38:01.785Z,0.2
2022-12-24T16:40:32.456Z,0.21
2022-12-24T16:43:02.580Z,0.21
2022-12-24T16:45:33.139Z,0.2
2022-12-24T16:48:03.723Z,0.19
2022-12-24T16:50:34.307Z,0.19
2022-12-24T16:53:04.929Z,0.2
2022-12-24T16:55:35.605Z,0.22
2022-12-24T16:58:06.081Z,0.19
2022-12-24T17:00:36.673Z,0.2
2022-12-24T17:03:07.427Z,0.21
2022-12-24T17:05:37.938Z,0.21
2022-12-24T17:08:08.582Z,0.22
2022-12-24T17:10:39.218Z,0.19
2022-12-24T17:13:09.821Z,0.2
2022-12-24T17:15:40.396Z,0.17
2022-12-24T17:18:10.700Z,0.16
2022-12-24T17:20:41.430Z,0.17
2022-12-24T17:23:11.939Z,0.18
2022-12-24T17:25:42.539Z,0.19
2022-12-24T17:28:13.170Z,0.2
2022-12-24T17:30:43.568Z,0.22
2022-12-24T17:33:14.886Z,0.21
2022-12-24T17:35:44.810Z,0.21
2022-12-24T17:38:15.441Z,0.19
2022-12-24T17:40:45.968Z,0.19
2022-12-24T17:43:16.595Z,0.16
2022-12-24T17:45:46.945Z,0.15
2022-12-24T17:48:17.496Z,0.15
2022-12-24T17:50:48.298Z,0.13
2022-12-24T17:53:18.782Z,0.12
2022-12-24T17:55:49.398Z,0.12
2022-12-24T17:58:19.780Z,0.12
2022-12-24T18:00:50.423Z,0.11
2022-12-24T18:03:21.280Z,0.11
2022-12-24T18:05:51.446Z,0.12
2022-12-24T18:08:22.102Z,0.12
2022-12-24T18:10:52.402Z,0.12
2022-12-24T18:13:23.070Z,0.12
2022-12-24T18:15:53.738Z,0.12
2022-12-24T18:18:24.024Z,0.1
2022-12-24T18:20:53.917Z,0.1
2022-12-24T18:23:24.594Z,0.11
2022-12-24T18:25:54.900Z,0.1
2022-12-24T18:28:25.581Z,0.12
2022-12-24T18:30:56.046Z,0.11
2022-12-24T18:33:26.648Z,0.11
2022-12-24T18:35:57.301Z,0.12
2022-12-24T18:38:27.992Z,0.11
2022-12-24T18:40:58.646Z,0.11
2022-12-24T18:43:29.350Z,0.11
2022-12-24T18:46:00.042Z,0.11
2022-12-24T18:48:30.796Z,0.12
2022-12-24T18:51:01.145Z,0.11
2022-12-24T18:53:31.832Z,0.14
2022-12-24T18:56:02.521Z,0.14
2022-12-24T18:58:33.244Z,0.14
2022-12-24T19:01:03.838Z,0.14
2022-12-24T19:03:34.302Z,0.13
2022-12-24T19:06:04.724Z,0.13
2022-12-24T19:08:57.589Z,0.15
2022-12-24T19:11:05.858Z,0.14
2022-12-24T19:13:36.235Z,0.13
2022-12-24T19:16:06.841Z,0.13
2022-12-24T19:18:37.380Z,0.13
2022-12-24T19:21:08.156Z,0.14
2022-12-24T19:23:38.792Z,0.14
2022-12-24T19:26:09.544Z,0.12
2022-12-24T19:28:39.948Z,0.13
2022-12-24T19:31:10.722Z,0.14
2022-12-24T19:33:43.341Z,0.15
2022-12-24T19:36:11.738Z,0.14
2022-12-24T19:38:42.420Z,0.15
2022-12-24T19:41:12.891Z,0.15
2022-12-24T19:43:43.260Z,0.15
2022-12-24T19:46:14.024Z,0.15
2022-12-24T19:48:44.300Z,0.15
2022-12-24T19:51:14.579Z,0.14
2022-12-24T19:53:44.832Z,0.14
2022-12-24T19:56:15.603Z,0.14
2022-12-24T19:58:46.191Z,0.15
2022-12-24T20:01:16.761Z,0.14
2022-12-24T20:03:47.010Z,0.13
2022-12-24T20:06:17.824Z,0.13
2022-12-24T20:08:48.407Z,0.11
2022-12-24T20:11:18.803Z,0.14
2022-12-24T20:13:49.469Z,0.13
2022-12-24T20:16:20.274Z,0.13
2022-12-24T20:18:50.891Z,0.13
2022-12-24T20:21:21.100Z,0.15
2022-12-24T20:23:51.774Z,0.14
2022-12-24T20:26:22.239Z,0.16
2022-12-24T20:28:52.838Z,0.16
2022-12-24T20:31:23.108Z,0.15
2022-12-24T20:33:53.702Z,0.16
2022-12-24T20:36:24.449Z,0.15
2022-12-24T20:38:54.814Z,0.14
2022-12-24T20:41:25.516Z,0.16
2022-12-24T20:43:55.917Z,0.17
2022-12-24T20:46:26.750Z,0.15
2022-12-24T20:48:57.124Z,0.13
2022-12-24T20:51:27.525Z,0.15
2022-12-24T20:53:57.630Z,0.13
2022-12-24T20:56:28.442Z,0.12
2022-12-24T20:58:59.018Z,0.12
2022-12-24T21:01:29.567Z,0.1
2022-12-24T21:03:59.819Z,0.09
2022-12-24T21:06:30.258Z,0.07
2022-12-24T21:09:00.587Z,0.07
2022-12-24T21:11:31.326Z,0.08
2022-12-24T21:14:01.445Z,0.11
2022-12-24T21:16:31.999Z,0.13
2022-12-24T21:19:02.318Z,0.12
2022-12-24T21:21:33.071Z,0.12
2022-12-24T21:24:02.995Z,0.14
2022-12-24T21:26:33.605Z,0.14
2022-12-24T21:29:04.116Z,0.14
2022-12-24T21:31:34.149Z,0.12
2022-12-24T21:34:04.192Z,0.12
2022-12-24T21:36:34.582Z,0.12
2022-12-24T21:39:05.221Z,0.11
2022-12-24T21:41:35.577Z,0.12
2022-12-24T21:44:06.125Z,0.13
2022-12-24T21:46:36.396Z,0.13
2022-12-24T21:49:07.032Z,0.13
2022-12-24T21:51:37.373Z,0.13
2022-12-24T21:54:08.093Z,0.13
2022-12-24T21:56:38.146Z,0.14
2022-12-24T21:59:08.673Z,0.13
2022-12-24T22:01:39.358Z,0.12
2022-12-24T22:04:09.924Z,0.11
2022-12-24T22:06:40.303Z,0.11
2022-12-24T22:09:10.524Z,0.09
2022-12-24T22:11:41.087Z,0.12
2022-12-24T22:14:11.892Z,0.13
2022-12-24T22:16:42.449Z,0.14
2022-12-24T22:19:13.043Z,0.15
2022-12-24T22:21:43.671Z,0.14
2022-12-24T22:24:13.783Z,0.14
2022-12-24T22:26:44.627Z,0.15
2022-12-24T22:29:14.869Z,0.14
2022-12-24T22:31:45.451Z,0.13
2022-12-24T22:34:16.133Z,0.14
2022-12-24T22:36:46.296Z,0.12
2022-12-24T22:39:17.124Z,0.12
2022-12-24T22:41:47.328Z,0.1
2022-12-24T22:44:17.430Z,0.09
2022-12-24T22:46:48.122Z,0.09
2022-12-24T22:49:18.301Z,0.1
2022-12-24T22:51:48.771Z,0.11
2022-12-24T22:54:19.524Z,0.12
2022-12-24T22:56:49.595Z,0.13
2022-12-24T22:59:19.753Z,0.14
2022-12-24T23:01:50.238Z,0.13
2022-12-24T23:04:20.931Z,0.12
2022-12-24T23:06:51.058Z,0.09
2022-12-24T23:09:21.707Z,0.1
2022-12-24T23:11:52.192Z,0.12
2022-12-24T23:14:22.287Z,0.12
2022-12-24T23:16:52.480Z,0.11
2022-12-24T23:19:22.803Z,0.12
2022-12-24T23:21:53.689Z,0.13
2022-12-24T23:24:23.887Z,0.13
2022-12-24T23:26:54.252Z,0.12
2022-12-24T23:29:24.627Z,0.12
2022-12-24T23:31:54.805Z,0.11
2022-12-24T23:34:25.290Z,0.1
2022-12-24T23:36:55.851Z,0.1
2022-12-24T23:39:25.868Z,0.11
2022-12-24T23:41:56.007Z,0.1
2022-12-24T23:44:31.986Z,0.1
2022-12-24T23:46:56.739Z,0.09
2022-12-24T23:49:27.046Z,0.1
2022-12-24T23:51:57.159Z,0.1
2022-12-24T23:54:27.913Z,0.09
2022-12-24T23:56:58.574Z,0.07
2022-12-24T23:59:29.006Z,0.06
